createdAt,value
2023-04-16T00:02:55.629Z,0.88715
2023-04-16T00:07:57.393Z,0
2023-04-16T00:12:58.983Z,0
2023-04-16T00:18:00.370Z,0
2023-04-16T00:23:01.822Z,0
2023-04-16T00:28:03.455Z,0
2023-04-16T00:33:04.761Z,0.88715
2023-04-16T00:38:06.209Z,0
2023-04-16T00:43:07.650Z,0
2023-04-16T00:48:09.053Z,0
2023-04-16T00:53:10.375Z,0
2023-04-16T00:58:11.747Z,0
2023-04-16T01:03:13.268Z,0
2023-04-16T01:08:14.740Z,0
2023-04-16T01:13:16.092Z,0
2023-04-16T01:18:17.382Z,0
2023-04-16T01:23:18.403Z,0
2023-04-16T01:28:19.871Z,0
2023-04-16T01:33:21.422Z,0
2023-04-16T01:38:22.937Z,0
2023-04-16T01:43:24.709Z,0
2023-04-16T01:48:25.956Z,0
2023-04-16T01:53:27.287Z,0
2023-04-16T01:58:28.819Z,0
2023-04-16T02:03:30.304Z,0
2023-04-16T02:08:31.820Z,0
2023-04-16T02:13:33.200Z,0
2023-04-16T02:18:34.618Z,0
2023-04-16T02:23:36.174Z,0
2023-04-16T02:28:37.724Z,0
2023-04-16T02:33:39.257Z,0
2023-04-16T02:38:40.552Z,0
2023-04-16T02:43:41.920Z,0
2023-04-16T02:48:43.561Z,0
2023-04-16T02:53:44.840Z,0
2023-04-16T02:58:46.301Z,0
2023-04-16T03:03:47.915Z,0.88715
2023-04-16T03:08:49.334Z,0
2023-04-16T03:13:50.742Z,0
2023-04-16T03:18:52.131Z,0
2023-04-16T03:23:53.621Z,0
2023-04-16T03:28:55.226Z,0
2023-04-16T03:33:56.769Z,0
2023-04-16T03:38:58.083Z,0
2023-04-16T03:43:59.693Z,0.88715
2023-04-16T03:49:01.016Z,0.88715
2023-04-16T03:54:02.422Z,0.88715
2023-04-16T03:59:03.987Z,0.88715
2023-04-16T04:04:05.463Z,1.16185
2023-04-16T04:09:07.056Z,0.88885
2023-04-16T04:14:08.692Z,1.83695
2023-04-16T04:19:10.044Z,3.67395
2023-04-16T04:24:11.640Z,6.4919
2023-04-16T04:29:12.941Z,15.4178
2023-04-16T04:34:14.336Z,15.5471
2023-04-16T04:39:15.676Z,22.5182
2023-04-16T04:44:17.184Z,26.0779
2023-04-16T04:49:18.586Z,31.40795
2023-04-16T04:54:19.950Z,34.46945
2023-04-16T04:59:21.340Z,36.3691
2023-04-16T05:04:22.828Z,35.59515
2023-04-16T05:09:24.148Z,43.67295
2023-04-16T05:14:25.610Z,44.097
2023-04-16T05:19:26.986Z,51.76975
2023-04-16T05:24:28.382Z,58.0722
2023-04-16T05:29:29.965Z,66.33945
2023-04-16T05:34:31.571Z,65.49135
2023-04-16T05:39:33.232Z,71.61435
2023-04-16T05:44:35.015Z,71.61435
2023-04-16T05:49:36.374Z,78.47515
2023-04-16T05:54:37.965Z,80.353
2023-04-16T05:59:39.407Z,85.3911
2023-04-16T06:04:41.009Z,84.22925
2023-04-16T06:09:42.364Z,89.43
2023-04-16T06:14:43.951Z,94.28085
2023-04-16T06:19:45.397Z,103.22575
2023-04-16T06:24:46.435Z,99.9798
2023-04-16T06:29:47.961Z,109.7918
2023-04-16T06:34:49.376Z,125.04415
2023-04-16T06:39:50.756Z,120.4519
2023-04-16T06:44:52.130Z,112.11495
2023-04-16T06:49:53.192Z,124.559
2023-04-16T06:54:54.569Z,150.9566
2023-04-16T06:59:56.247Z,150.2767
2023-04-16T07:04:57.748Z,151.87885
2023-04-16T07:09:59.223Z,167.85
2023-04-16T07:15:00.786Z,178.1602
2023-04-16T07:20:02.261Z,189.13405
2023-04-16T07:25:03.768Z,196.36375
2023-04-16T07:30:05.360Z,194.0679
2023-04-16T07:35:06.587Z,209.0148
2023-04-16T07:40:07.875Z,242.581
2023-04-16T07:45:09.480Z,268.6729
2023-04-16T07:50:10.727Z,258.8362
2023-04-16T07:55:12.150Z,248.5846
2023-04-16T08:00:13.482Z,251.6067
2023-04-16T08:05:14.760Z,257.3547
2023-04-16T08:10:16.283Z,270.45045
2023-04-16T08:15:17.526Z,274.5393
2023-04-16T08:20:19.534Z,279.51695
2023-04-16T08:25:21.148Z,270.74695
2023-04-16T08:30:22.529Z,270.9103
2023-04-16T08:35:23.990Z,303.05605
2023-04-16T08:40:25.323Z,312.28635
2023-04-16T08:45:26.656Z,319.21945
2023-04-16T08:50:28.019Z,332.4338
2023-04-16T08:55:29.475Z,332.0189
2023-04-16T09:00:30.873Z,334.8041
2023-04-16T09:05:32.123Z,384.6117
2023-04-16T09:10:33.405Z,474.76235
2023-04-16T09:15:35.238Z,572.18875
2023-04-16T09:20:36.872Z,482.7695
2023-04-16T09:25:38.425Z,428.90475
2023-04-16T09:30:39.663Z,417.3496
2023-04-16T09:35:40.920Z,440.8747
2023-04-16T09:40:42.441Z,463.5109
2023-04-16T09:45:43.886Z,481.99905
2023-04-16T09:50:45.217Z,458.00015
2023-04-16T09:55:47.013Z,433.5862
2023-04-16T10:00:48.238Z,567.91565
2023-04-16T10:05:49.396Z,868.2388
2023-04-16T10:10:50.617Z,595.82275
2023-04-16T10:15:51.960Z,571.715
2023-04-16T10:20:53.297Z,610.9435
2023-04-16T10:25:56.954Z,778.5372
2023-04-16T10:30:59.191Z,1285.9435
2023-04-16T10:36:07.358Z,729.95505
2023-04-16T10:41:09.507Z,1014.74635
2023-04-16T10:46:11.389Z,1414.5798
2023-04-16T10:51:12.927Z,1369.81915
2023-04-16T10:56:14.607Z,1473.8476
2023-04-16T11:01:16.230Z,1072.57705
2023-04-16T11:06:18.035Z,1497.1379
2023-04-16T11:11:19.529Z,1495.05195
2023-04-16T11:16:20.968Z,1522.9915
2023-04-16T11:21:22.344Z,1547.3162
2023-04-16T11:26:23.508Z,1539.5883
2023-04-16T11:31:24.969Z,1571.69605
2023-04-16T11:36:27.700Z,1642.66205
2023-04-16T11:41:29.297Z,2316.85065
2023-04-16T11:46:30.799Z,1671.35655
2023-04-16T11:51:32.556Z,1699.5357
2023-04-16T11:56:33.883Z,1709.8079
2023-04-16T12:01:35.420Z,1677.90175
2023-04-16T12:06:36.974Z,1703.8675
2023-04-16T12:11:38.524Z,1723.10175
2023-04-16T12:16:40.421Z,1787.90675
2023-04-16T12:21:42.038Z,1777.35695
2023-04-16T12:26:43.715Z,1811.58495
2023-04-16T12:31:45.325Z,1819.62475
2023-04-16T12:36:46.946Z,1804.18795
2023-04-16T12:41:48.409Z,1800.36965
2023-04-16T12:46:49.976Z,850.57845
2023-04-16T12:51:51.476Z,1618.97275
2023-04-16T12:56:53.061Z,1719.1296
2023-04-16T13:01:54.596Z,1791.56935
2023-04-16T13:06:56.090Z,1845.0506
2023-04-16T13:11:57.337Z,1848.25855
2023-04-16T13:16:59.125Z,1820.1327
2023-04-16T13:22:00.385Z,1737.19645
2023-04-16T13:27:01.888Z,1784.25995
2023-04-16T13:32:03.487Z,1724.5797
2023-04-16T13:37:05.098Z,1685.20425
2023-04-16T13:42:06.656Z,1645.16515
2023-04-16T13:47:08.326Z,1630.6316
2023-04-16T13:52:09.672Z,1629.6162
2023-04-16T13:57:10.963Z,1609.4027
2023-04-16T14:02:12.632Z,1617.6821
2023-04-16T14:07:13.995Z,1535.50265
2023-04-16T14:12:15.530Z,1431.24805
2023-04-16T14:17:17.238Z,1346.7449
2023-04-16T14:22:18.801Z,1294.7184
2023-04-16T14:27:20.160Z,1197.1953
2023-04-16T14:32:21.537Z,1142.55035
2023-04-16T14:37:23.165Z,1082.9081
2023-04-16T14:42:24.536Z,978.96725
2023-04-16T14:47:26.029Z,823.59125
2023-04-16T14:52:27.311Z,677.98925
2023-04-16T14:57:28.584Z,527.24165
2023-04-16T15:02:30.167Z,399.5466
2023-04-16T15:07:31.651Z,303.53525
2023-04-16T15:12:32.972Z,214.9265
2023-04-16T15:17:34.641Z,167.52055
2023-04-16T15:22:36.313Z,124.7367
2023-04-16T15:27:37.634Z,91.7896
2023-04-16T15:32:39.319Z,82.2726
2023-04-16T15:37:40.908Z,67.73905
2023-04-16T15:42:42.452Z,48.15305
2023-04-16T15:47:43.912Z,31.2045
2023-04-16T15:52:45.212Z,14.5697
2023-04-16T15:57:46.788Z,6.04425
2023-04-16T16:02:48.502Z,3.08135
2023-04-16T16:07:50.266Z,1.6592
2023-04-16T16:12:51.628Z,1.16185
2023-04-16T16:17:53.255Z,0.88715
2023-04-16T16:22:54.819Z,0.88715
2023-04-16T16:27:56.393Z,0.88715
2023-04-16T16:32:57.882Z,0
2023-04-16T16:37:59.463Z,0.88715
2023-04-16T16:43:00.769Z,0.88715
2023-04-16T16:48:02.282Z,0.88715
2023-04-16T16:53:03.791Z,0.88715
2023-04-16T16:58:05.344Z,0.88715
2023-04-16T17:03:07.193Z,0.88715
2023-04-16T17:08:08.604Z,0.88715
2023-04-16T17:13:09.784Z,0.88715
2023-04-16T17:18:11.142Z,0.88715
2023-04-16T17:23:13.093Z,0.88715
2023-04-16T17:28:14.524Z,0.88715
2023-04-16T17:33:15.873Z,0.88715
2023-04-16T17:38:17.356Z,0.88715
2023-04-16T17:43:18.647Z,0.88715
2023-04-16T17:48:19.666Z,0.88715
2023-04-16T17:53:21.341Z,0.88715
2023-04-16T17:58:22.818Z,0
2023-04-16T18:03:24.519Z,0
2023-04-16T18:08:25.648Z,0.88715
2023-04-16T18:13:27.256Z,0
2023-04-16T18:18:28.754Z,0
2023-04-16T18:23:30.078Z,0.88715
2023-04-16T18:28:31.482Z,0
2023-04-16T18:38:46.310Z,0.88715
2023-04-16T18:43:54.714Z,0
2023-04-16T18:48:56.338Z,0
2023-04-16T18:53:57.622Z,0
2023-04-16T18:58:59.193Z,0
2023-04-16T19:04:00.734Z,0
2023-04-16T19:09:02.169Z,0
2023-04-16T19:14:03.407Z,0
2023-04-16T19:19:05.226Z,0.88715
2023-04-16T19:24:06.620Z,0
2023-04-16T19:29:07.913Z,0.88715
2023-04-16T19:34:09.373Z,0
2023-04-16T19:39:11.237Z,0
2023-04-16T19:44:12.898Z,0
2023-04-16T19:49:14.205Z,0
2023-04-16T19:54:15.545Z,0
2023-04-16T19:59:17.175Z,0
2023-04-16T20:04:18.600Z,0
2023-04-16T20:09:20.300Z,0
2023-04-16T20:14:21.626Z,0
2023-04-16T20:19:23.075Z,0
2023-04-16T20:24:24.545Z,0
2023-04-16T20:29:25.857Z,0
2023-04-16T20:34:27.208Z,0.88715
2023-04-16T20:39:28.606Z,0
2023-04-16T20:44:30.137Z,0
2023-04-16T20:49:31.503Z,0
2023-04-16T20:54:33.101Z,0
2023-04-16T20:59:34.364Z,0.88715
2023-04-16T21:04:35.751Z,0
2023-04-16T21:09:37.273Z,0
2023-04-16T21:14:38.899Z,0
2023-04-16T21:19:40.406Z,0.88715
2023-04-16T21:24:41.707Z,0
2023-04-16T21:29:43.026Z,0
2023-04-16T22:23:05.575Z,0
2023-04-16T22:28:06.941Z,0
2023-04-16T22:33:08.439Z,0
2023-04-16T22:38:10.162Z,0.88715
2023-04-16T22:43:11.525Z,0
2023-04-16T22:48:13.125Z,0
2023-04-16T22:53:14.774Z,0
2023-04-16T22:58:16.192Z,0
2023-04-16T23:03:17.773Z,0
2023-04-16T23:08:19.136Z,0
2023-04-16T23:13:20.493Z,0.88715
2023-04-16T23:18:22.012Z,0.88715
2023-04-16T23:23:23.519Z,0.88715
2023-04-16T23:28:25.086Z,0.88715
2023-04-16T23:33:26.370Z,0
2023-04-16T23:38:27.621Z,0
2023-04-16T23:43:28.860Z,0
2023-04-16T23:48:30.347Z,0
2023-04-16T23:53:31.764Z,0
2023-04-16T23:58:33.103Z,0
